createdAt,value
2022-09-01T00:00:29.187Z,1.88
2022-09-01T00:01:05.039Z,2.35
2022-09-01T00:01:43.325Z,2.33
2022-09-01T00:02:16.590Z,2.90
2022-09-01T00:02:54.106Z,1.83
2022-09-01T00:03:27.011Z,2.15
2022-09-01T00:04:03.922Z,2.33
2022-09-01T00:04:40.884Z,2.20
2022-09-01T00:05:15.365Z,2.65
2022-09-01T00:05:57.253Z,1.70
2022-09-01T00:06:33.888Z,2.95
2022-09-01T00:07:06.126Z,2.60
2022-09-01T00:07:38.371Z,2.38
2022-09-01T00:08:10.572Z,2.58
2022-09-01T00:08:45.356Z,2.08
2022-09-01T00:09:19.800Z,2.78
2022-09-01T00:09:51.969Z,2.30
2022-09-01T00:10:26.842Z,3.00
2022-09-01T00:10:58.985Z,2.35
2022-09-01T00:11:32.685Z,3.80
2022-09-01T00:12:09.359Z,2.28
2022-09-01T00:12:41.954Z,2.88
2022-09-01T00:13:14.774Z,2.05
2022-09-01T00:13:50.565Z,2.35
2022-09-01T00:14:29.969Z,2.05
2022-09-01T00:15:39.592Z,2.28
2022-09-01T00:16:15.380Z,2.38
2022-09-01T00:16:47.623Z,2.47
2022-09-01T00:17:26.498Z,3.03
2022-09-01T00:18:01.802Z,2.47
2022-09-01T00:18:34.792Z,2.90
2022-09-01T00:19:10.368Z,2.08
2022-09-01T00:19:44.684Z,3.00
2022-09-01T00:20:20.480Z,2.22
2022-09-01T00:20:59.299Z,2.83
2022-09-01T00:21:35.090Z,2.50
2022-09-01T00:22:08.309Z,2.13
2022-09-01T00:22:43.131Z,2.30
2022-09-01T00:23:15.289Z,2.75
2022-09-01T00:23:47.902Z,2.00
2022-09-01T00:24:22.730Z,2.42
2022-09-01T00:24:55.020Z,2.28
2022-09-01T00:25:28.369Z,2.65
2022-09-01T00:26:03.282Z,2.13
2022-09-01T00:26:36.008Z,3.20
2022-09-01T00:27:10.756Z,2.78
2022-09-01T00:27:43.366Z,2.70
2022-09-01T00:28:15.636Z,2.90
2022-09-01T00:28:51.185Z,2.95
2022-09-01T00:29:24.492Z,1.95
2022-09-01T00:29:57.040Z,2.97
2022-09-01T00:30:31.775Z,2.28
2022-09-01T00:31:06.431Z,2.15
2022-09-01T00:31:39.086Z,2.33
2022-09-01T00:32:14.675Z,2.45
2022-09-01T00:32:47.577Z,2.00
2022-09-01T00:33:22.411Z,2.85
2022-09-01T00:33:57.433Z,2.40
2022-09-01T00:34:29.610Z,2.63
2022-09-01T00:35:02.223Z,2.40
2022-09-01T00:35:37.511Z,3.08
2022-09-01T00:36:10.105Z,2.00
2022-09-01T00:36:42.274Z,2.83
2022-09-01T00:37:17.079Z,2.03
2022-09-01T00:37:49.434Z,2.90
2022-09-01T00:38:21.705Z,2.40
2022-09-01T00:38:57.339Z,2.53
2022-09-01T00:39:29.698Z,2.25
2022-09-01T00:40:04.583Z,2.40
2022-09-01T00:40:37.098Z,2.53
2022-09-01T00:41:09.863Z,2.53
2022-09-01T00:41:47.445Z,2.78
2022-09-01T00:42:19.700Z,2.33
2022-09-01T00:42:54.014Z,2.42
2022-09-01T00:43:42.451Z,2.50
2022-09-01T00:44:19.046Z,3.15
2022-09-01T00:44:51.215Z,3.40
2022-09-01T00:45:26.175Z,1.92
2022-09-01T00:45:58.338Z,2.15
2022-09-01T00:46:37.018Z,2.85
2022-09-01T00:47:24.725Z,2.20
2022-09-01T00:47:57.360Z,3.38
2022-09-01T00:48:32.737Z,2.95
2022-09-01T00:49:11.237Z,2.85
2022-09-01T00:49:47.631Z,2.80
2022-09-01T00:50:24.730Z,2.80
2022-09-01T00:50:57.034Z,2.30
2022-09-01T00:51:30.196Z,3.40
2022-09-01T00:52:08.718Z,2.20
2022-09-01T00:52:44.960Z,3.05
2022-09-01T00:53:17.163Z,2.20
2022-09-01T00:53:52.583Z,2.53
2022-09-01T00:54:27.650Z,2.35
2022-09-01T00:55:05.452Z,2.47
2022-09-01T00:55:40.981Z,2.05
2022-09-01T00:56:14.302Z,2.15
2022-09-01T00:56:47.087Z,2.25
2022-09-01T00:57:28.643Z,2.40
2022-09-01T00:58:02.787Z,3.10
2022-09-01T00:58:36.363Z,2.58
2022-09-01T00:59:13.029Z,1.90
2022-09-01T00:59:51.974Z,2.30
2022-09-01T01:00:29.889Z,1.70
2022-09-01T01:01:02.858Z,1.48
2022-09-01T01:01:38.409Z,2.03
2022-09-01T01:02:11.409Z,1.63
2022-09-01T01:02:45.249Z,2.15
2022-09-01T01:03:20.303Z,2.13
2022-09-01T01:03:55.417Z,2.40
2022-09-01T01:04:27.610Z,1.65
2022-09-01T01:05:03.964Z,1.60
2022-09-01T01:05:42.698Z,1.90
2022-09-01T01:06:17.340Z,2.03
2022-09-01T01:06:58.971Z,1.98
2022-09-01T01:07:33.518Z,1.45
2022-09-01T01:08:08.282Z,1.73
2022-09-01T01:08:57.161Z,1.80
2022-09-01T01:09:33.256Z,1.58
2022-09-01T01:10:07.147Z,1.58
2022-09-01T01:10:45.118Z,1.63
2022-09-01T01:11:18.032Z,2.20
2022-09-01T01:11:50.407Z,2.13
2022-09-01T01:12:28.130Z,1.50
2022-09-01T01:13:02.089Z,2.10
2022-09-01T01:13:48.897Z,2.25
2022-09-01T01:14:23.923Z,1.50
2022-09-01T01:14:57.167Z,1.95
2022-09-01T01:15:30.010Z,1.55
2022-09-01T01:16:08.367Z,1.50
2022-09-01T01:16:45.254Z,1.55
2022-09-01T01:17:20.446Z,1.70
2022-09-01T01:17:52.655Z,1.80
2022-09-01T01:18:24.789Z,1.65
2022-09-01T01:18:59.966Z,1.33
2022-09-01T01:19:55.853Z,1.42
2022-09-01T01:20:47.816Z,1.40
2022-09-01T01:21:46.774Z,2.03
2022-09-01T01:22:39.759Z,1.40
2022-09-01T01:23:24.260Z,2.08
2022-09-01T01:24:02.969Z,1.73
2022-09-01T01:24:37.798Z,2.05
2022-09-01T01:25:12.982Z,1.55
2022-09-01T01:25:48.589Z,1.55
2022-09-01T01:26:21.371Z,1.52
2022-09-01T01:26:59.785Z,1.60
2022-09-01T01:27:33.763Z,2.10
2022-09-01T01:28:18.743Z,2.03
2022-09-01T01:28:59.515Z,1.50
2022-09-01T01:29:33.542Z,2.17
2022-09-01T01:30:10.064Z,1.50
2022-09-01T01:30:51.278Z,2.50
2022-09-01T01:31:24.790Z,1.85
2022-09-01T01:31:57.256Z,2.03
2022-09-01T01:32:32.663Z,1.48
2022-09-01T01:33:06.859Z,2.22
2022-09-01T01:33:47.211Z,1.70
2022-09-01T01:34:19.672Z,1.77
2022-09-01T01:34:53.952Z,1.52
2022-09-01T01:35:26.395Z,2.10
2022-09-01T01:36:02.381Z,2.47
2022-09-01T01:36:36.865Z,1.83
2022-09-01T01:37:14.233Z,1.70
2022-09-01T01:37:50.663Z,2.08
2022-09-01T01:38:24.255Z,1.70
2022-09-01T01:39:03.603Z,1.70
2022-09-01T01:39:42.999Z,1.70
2022-09-01T01:40:18.041Z,1.92
2022-09-01T01:40:55.001Z,1.48
2022-09-01T01:41:30.130Z,4.50
2022-09-01T01:42:02.703Z,1.83
2022-09-01T01:42:38.019Z,1.55
2022-09-01T01:43:15.864Z,2.40
2022-09-01T01:43:51.213Z,1.85
2022-09-01T01:44:28.437Z,2.13
2022-09-01T01:45:07.228Z,2.13
2022-09-01T01:45:43.567Z,2.05
2022-09-01T01:46:18.306Z,1.98
2022-09-01T01:46:56.357Z,1.40
2022-09-01T01:47:29.744Z,1.80
2022-09-01T01:48:08.759Z,1.77
2022-09-01T01:48:47.175Z,1.67
2022-09-01T01:49:24.592Z,1.55
2022-09-01T01:49:57.550Z,1.83
2022-09-01T01:50:38.060Z,1.83
2022-09-01T01:51:12.118Z,2.08
2022-09-01T01:51:46.948Z,1.70
2022-09-01T01:52:26.185Z,2.00
2022-09-01T01:53:01.511Z,1.45
2022-09-01T01:53:34.749Z,1.85
2022-09-01T01:54:09.946Z,1.67
2022-09-01T01:54:46.223Z,2.10
2022-09-01T01:55:19.513Z,1.35
2022-09-01T01:55:54.886Z,1.60
2022-09-01T01:56:27.137Z,3.05
2022-09-01T01:56:59.550Z,2.00
2022-09-01T01:57:35.646Z,1.90
2022-09-01T01:58:12.360Z,1.70
2022-09-01T01:58:45.422Z,1.55
2022-09-01T01:59:24.951Z,1.35
2022-09-01T01:59:57.514Z,1.45
2022-09-01T02:00:35.185Z,1.45
2022-09-01T02:01:13.271Z,1.67
2022-09-01T02:01:51.568Z,2.13
2022-09-01T02:02:24.001Z,2.05
2022-09-01T02:02:59.685Z,2.03
2022-09-01T02:03:38.803Z,2.55
2022-09-01T02:04:12.086Z,1.55
2022-09-01T02:04:47.107Z,1.83
2022-09-01T02:05:25.005Z,1.77
2022-09-01T02:05:58.126Z,1.63
2022-09-01T02:06:37.241Z,1.25
2022-09-01T02:07:12.108Z,2.25
2022-09-01T02:07:44.336Z,1.65
2022-09-01T02:08:22.060Z,1.70
2022-09-01T02:08:58.382Z,1.58
2022-09-01T02:09:30.657Z,1.40
2022-09-01T02:10:09.107Z,2.40
2022-09-01T02:10:44.186Z,1.92
2022-09-01T02:11:19.258Z,1.45
2022-09-01T02:11:54.525Z,1.60
2022-09-01T02:12:27.072Z,4.32
2022-09-01T02:13:07.753Z,2.20
2022-09-01T02:14:13.659Z,2.05
2022-09-01T02:14:50.280Z,1.95
2022-09-01T02:15:22.555Z,1.88
2022-09-01T02:15:56.870Z,1.50
2022-09-01T02:16:33.628Z,1.95
2022-09-01T02:17:07.612Z,2.08
2022-09-01T02:17:40.386Z,2.10
2022-09-01T02:18:16.633Z,1.73
2022-09-01T02:18:54.108Z,1.88
2022-09-01T02:19:26.510Z,1.27
2022-09-01T02:19:59.469Z,1.90
2022-09-01T02:20:32.943Z,1.33
2022-09-01T02:21:16.374Z,1.67
2022-09-01T02:21:54.490Z,1.50
2022-09-01T02:22:29.427Z,1.58
2022-09-01T02:23:11.719Z,1.63
2022-09-01T02:23:44.180Z,1.85
2022-09-01T02:24:18.948Z,1.67
2022-09-01T02:24:52.644Z,1.77
2022-09-01T02:25:32.049Z,1.40
2022-09-01T02:26:16.116Z,3.83
2022-09-01T02:26:52.504Z,2.45
2022-09-01T02:27:27.042Z,2.05
2022-09-01T02:28:00.851Z,2.15
2022-09-01T02:28:40.175Z,1.67
2022-09-01T02:29:21.072Z,1.90
2022-09-01T02:29:55.574Z,1.80
2022-09-01T02:30:33.098Z,1.70
2022-09-01T02:31:09.083Z,2.22
2022-09-01T02:31:41.996Z,1.38
2022-09-01T02:32:22.189Z,1.85
2022-09-01T02:32:54.577Z,1.50
2022-09-01T02:33:28.659Z,1.63
2022-09-01T02:34:03.942Z,1.63
2022-09-01T02:34:40.052Z,2.40
2022-09-01T02:35:13.630Z,1.65
2022-09-01T02:35:49.703Z,2.03
2022-09-01T02:36:22.681Z,2.38
2022-09-01T02:36:56.864Z,2.30
2022-09-01T02:37:33.035Z,1.23
2022-09-01T02:38:05.934Z,2.03
2022-09-01T02:38:39.511Z,1.52
2022-09-01T02:39:14.389Z,1.83
2022-09-01T02:39:46.616Z,1.70
2022-09-01T02:40:19.829Z,1.98
2022-09-01T02:40:58.635Z,1.77
2022-09-01T02:41:32.855Z,4.10
2022-09-01T02:42:05.680Z,1.98
2022-09-01T02:42:43.505Z,3.63
2022-09-01T02:43:19.639Z,1.90
2022-09-01T02:43:54.295Z,2.50
2022-09-01T02:44:29.293Z,2.40
2022-09-01T02:45:02.725Z,2.08
2022-09-01T02:45:36.166Z,3.47
2022-09-01T02:46:12.286Z,2.80
2022-09-01T02:46:46.599Z,2.35
2022-09-01T02:47:23.404Z,2.33
2022-09-01T02:47:57.366Z,2.22
2022-09-01T02:48:37.365Z,2.15
2022-09-01T02:49:15.416Z,2.33
2022-09-01T02:49:47.659Z,2.85
2022-09-01T02:50:24.988Z,2.33
2022-09-01T02:50:59.478Z,2.25
2022-09-01T02:51:32.138Z,2.72
2022-09-01T02:52:08.115Z,2.28
2022-09-01T02:52:40.590Z,2.15
2022-09-01T02:53:15.543Z,2.20
2022-09-01T02:53:53.153Z,2.72
2022-09-01T02:54:27.942Z,1.95
2022-09-01T02:55:03.293Z,2.50
2022-09-01T02:55:35.764Z,2.55
2022-09-01T02:56:14.403Z,2.00
2022-09-01T02:56:49.991Z,2.35
2022-09-01T02:57:25.085Z,3.63
2022-09-01T02:57:58.355Z,2.05
2022-09-01T02:58:35.448Z,2.92
2022-09-01T02:59:13.101Z,2.25
2022-09-01T02:59:45.664Z,3.03
2022-09-01T03:00:29.168Z,2.42
2022-09-01T03:01:01.460Z,3.50
2022-09-01T03:01:35.171Z,2.90
2022-09-01T03:02:10.048Z,2.60
2022-09-01T03:02:42.599Z,2.00
2022-09-01T03:03:17.950Z,2.17
2022-09-01T03:03:54.361Z,2.08
2022-09-01T03:04:27.613Z,2.55
2022-09-01T03:05:00.323Z,2.40
2022-09-01T03:05:36.337Z,2.40
2022-09-01T03:06:10.280Z,2.55
2022-09-01T03:06:42.922Z,2.45
2022-09-01T03:07:18.470Z,2.55
2022-09-01T03:07:56.611Z,2.38
2022-09-01T03:08:31.821Z,2.80
2022-09-01T03:09:11.297Z,2.25
2022-09-01T03:09:43.903Z,2.85
2022-09-01T03:10:16.566Z,2.85
2022-09-01T03:10:52.146Z,3.53
2022-09-01T03:11:29.372Z,3.10
2022-09-01T03:12:02.018Z,3.60
2022-09-01T03:12:36.886Z,2.83
2022-09-01T03:13:12.862Z,3.33
2022-09-01T03:13:45.415Z,3.03
2022-09-01T03:14:18.631Z,3.47
2022-09-01T03:14:53.363Z,2.72
2022-09-01T03:15:26.039Z,2.67
2022-09-01T03:15:58.209Z,4.55
2022-09-01T03:16:33.502Z,4.03
2022-09-01T03:17:06.196Z,3.03
2022-09-01T03:17:41.949Z,3.40
2022-09-01T03:18:18.752Z,2.63
2022-09-01T03:18:52.023Z,4.93
2022-09-01T03:19:24.542Z,2.88
2022-09-01T03:19:59.923Z,4.25
2022-09-01T03:20:34.647Z,2.72
2022-09-01T03:21:16.208Z,2.95
2022-09-01T03:21:49.340Z,3.22
2022-09-01T03:22:29.704Z,2.67
2022-09-01T03:23:02.386Z,3.15
2022-09-01T03:23:34.985Z,4.03
2022-09-01T03:24:10.715Z,5.97
2022-09-01T03:24:43.047Z,4.38
2022-09-01T03:25:15.925Z,4.75
2022-09-01T03:25:50.852Z,4.30
2022-09-01T03:26:23.974Z,4.50
2022-09-01T03:26:58.787Z,4.88
2022-09-01T03:27:33.701Z,3.40
2022-09-01T03:28:06.438Z,4.18
2022-09-01T03:28:39.193Z,3.22
2022-09-01T03:29:14.735Z,3.85
2022-09-01T03:29:47.021Z,3.22
2022-09-01T03:30:19.834Z,3.72
2022-09-01T03:30:57.363Z,3.25
2022-09-01T03:31:31.331Z,2.63
2022-09-01T03:32:06.569Z,2.47
2022-09-01T03:32:42.188Z,3.80
2022-09-01T03:33:14.483Z,3.10
2022-09-01T03:33:47.636Z,3.08
2022-09-01T03:34:30.093Z,2.92
2022-09-01T03:35:02.665Z,3.33
2022-09-01T03:35:34.872Z,6.20
2022-09-01T03:36:19.376Z,4.97
2022-09-01T03:36:56.614Z,3.47
2022-09-01T03:37:34.439Z,3.67
2022-09-01T03:38:06.752Z,3.35
2022-09-01T03:38:44.158Z,3.55
2022-09-01T03:39:18.269Z,3.85
2022-09-01T03:39:50.454Z,3.38
2022-09-01T03:40:34.410Z,3.72
2022-09-01T03:41:06.685Z,3.22
2022-09-01T03:41:39.116Z,5.35
2022-09-01T03:42:26.136Z,3.90
2022-09-01T03:42:58.599Z,4.60
2022-09-01T03:43:35.971Z,3.63
2022-09-01T03:44:13.995Z,2.35
2022-09-01T03:44:47.852Z,2.55
2022-09-01T03:45:20.609Z,3.58
2022-09-01T03:45:55.551Z,3.50
2022-09-01T03:46:35.863Z,3.28
2022-09-01T03:47:15.460Z,4.00
2022-09-01T03:47:48.126Z,5.10
2022-09-01T03:48:21.407Z,5.28
2022-09-01T03:49:00.944Z,4.38
2022-09-01T03:49:33.582Z,5.20
2022-09-01T03:50:14.010Z,6.32
2022-09-01T03:50:47.268Z,6.78
2022-09-01T03:51:21.102Z,5.43
2022-09-01T03:51:57.541Z,6.38
2022-09-01T03:52:30.252Z,5.57
2022-09-01T03:53:02.949Z,6.50
2022-09-01T03:53:40.525Z,5.82
2022-09-01T03:54:13.345Z,6.05
2022-09-01T03:54:46.124Z,6.88
2022-09-01T03:55:23.512Z,9.05
2022-09-01T03:55:57.789Z,7.50
2022-09-01T03:56:30.110Z,9.65
2022-09-01T03:57:06.155Z,9.57
2022-09-01T03:57:42.550Z,7.55
2022-09-01T03:58:19.239Z,6.65
2022-09-01T03:58:54.842Z,6.78
2022-09-01T03:59:27.241Z,7.38
2022-09-01T04:00:00.253Z,6.00
2022-09-01T04:00:38.879Z,6.63
2022-09-01T04:01:13.924Z,5.80
2022-09-01T04:01:46.584Z,6.25
2022-09-01T04:02:23.117Z,5.63
2022-09-01T04:02:59.446Z,6.25
2022-09-01T04:03:36.174Z,4.90
2022-09-01T04:04:13.873Z,5.35
2022-09-01T04:04:46.458Z,5.65
2022-09-01T04:05:23.114Z,6.45
2022-09-01T04:05:58.357Z,5.80
2022-09-01T04:06:31.012Z,6.32
2022-09-01T04:07:03.192Z,5.97
2022-09-01T04:07:39.158Z,6.78
2022-09-01T04:08:12.833Z,6.72
2022-09-01T04:08:47.348Z,8.30
2022-09-01T04:09:22.177Z,6.82
2022-09-01T04:09:54.519Z,7.47
2022-09-01T04:10:26.891Z,8.20
2022-09-01T04:11:05.319Z,6.93
2022-09-01T04:11:45.194Z,8.13
2022-09-01T04:12:22.992Z,6.57
2022-09-01T04:13:00.304Z,7.70
2022-09-01T04:13:36.443Z,6.13
2022-09-01T04:14:13.539Z,8.55
2022-09-01T04:14:48.205Z,6.75
2022-09-01T04:15:20.561Z,7.85
2022-09-01T04:15:56.482Z,6.78
2022-09-01T04:16:45.732Z,8.05
2022-09-01T04:17:33.012Z,8.13
2022-09-01T04:18:09.735Z,8.18
2022-09-01T04:18:42.280Z,8.55
2022-09-01T04:19:20.571Z,6.38
2022-09-01T04:19:55.956Z,7.18
2022-09-01T04:20:29.268Z,7.45
2022-09-01T04:21:01.574Z,7.90
2022-09-01T04:21:38.411Z,8.60
2022-09-01T04:22:17.737Z,8.13
2022-09-01T04:22:53.801Z,7.38
2022-09-01T04:23:30.132Z,8.00
2022-09-01T04:24:05.763Z,7.35
2022-09-01T04:24:45.091Z,10.00
2022-09-01T04:25:23.175Z,8.68
2022-09-01T04:25:57.648Z,9.20
2022-09-01T04:26:33.987Z,9.80
2022-09-01T04:27:09.119Z,8.85
2022-09-01T04:27:42.189Z,8.77
2022-09-01T04:28:23.236Z,8.20
2022-09-01T04:28:56.218Z,8.27
2022-09-01T04:29:29.603Z,6.47
2022-09-01T04:30:05.749Z,7.50
2022-09-01T04:30:41.030Z,7.88
2022-09-01T04:31:20.431Z,8.85
2022-09-01T04:31:59.406Z,8.38
2022-09-01T04:32:32.636Z,8.60
2022-09-01T04:33:07.528Z,10.20
2022-09-01T04:33:44.771Z,9.32
2022-09-01T04:34:17.453Z,8.68
2022-09-01T04:34:52.336Z,8.40
2022-09-01T04:35:37.792Z,8.18
2022-09-01T04:36:19.798Z,8.48
2022-09-01T04:36:57.012Z,8.02
2022-09-01T04:37:30.202Z,7.53
2022-09-01T04:38:06.001Z,8.38
2022-09-01T04:38:41.083Z,8.75
2022-09-01T04:39:13.474Z,9.65
2022-09-01T04:39:54.832Z,8.57
2022-09-01T04:40:31.157Z,8.52
2022-09-01T04:41:06.628Z,7.80
2022-09-01T04:41:46.100Z,7.90
2022-09-01T04:42:23.601Z,7.97
2022-09-01T04:42:55.959Z,8.25
2022-09-01T04:43:31.110Z,8.27
2022-09-01T04:44:07.977Z,8.65
2022-09-01T04:44:42.987Z,8.50
2022-09-01T04:45:22.506Z,8.55
2022-09-01T04:45:56.950Z,9.30
2022-09-01T04:46:31.521Z,7.50
2022-09-01T04:47:11.017Z,7.72
2022-09-01T04:47:43.347Z,9.25
2022-09-01T04:48:22.289Z,8.45
2022-09-01T04:48:58.576Z,8.93
2022-09-01T04:49:33.889Z,8.43
2022-09-01T04:50:14.711Z,8.38
2022-09-01T04:50:52.099Z,9.13
2022-09-01T04:52:00.602Z,8.02
2022-09-01T04:52:33.205Z,7.88
2022-09-01T04:53:07.913Z,8.48
2022-09-01T04:53:48.951Z,8.65
2022-09-01T04:54:24.314Z,8.88
2022-09-01T04:54:56.544Z,8.68
2022-09-01T04:55:32.161Z,10.30
2022-09-01T04:56:05.554Z,9.15
2022-09-01T04:56:46.231Z,10.25
2022-09-01T04:57:20.861Z,9.25
2022-09-01T04:57:54.922Z,8.52
2022-09-01T04:58:30.912Z,7.40
2022-09-01T04:59:07.082Z,7.93
2022-09-01T04:59:39.705Z,8.10
2022-09-01T05:00:22.681Z,10.32
2022-09-01T05:00:56.081Z,8.40
2022-09-01T05:01:32.097Z,8.10
2022-09-01T05:02:07.883Z,7.22
2022-09-01T05:02:40.723Z,7.88
2022-09-01T05:03:13.003Z,7.35
2022-09-01T05:04:01.572Z,8.02
2022-09-01T05:04:46.578Z,9.32
2022-09-01T05:05:22.643Z,9.95
2022-09-01T05:05:54.961Z,7.55
2022-09-01T05:06:29.495Z,8.55
2022-09-01T05:07:10.381Z,7.70
2022-09-01T05:07:44.810Z,7.30
2022-09-01T05:08:23.847Z,8.80
2022-09-01T05:09:00.818Z,9.20
2022-09-01T05:09:46.838Z,7.97
2022-09-01T05:10:49.795Z,7.97
2022-09-01T05:11:37.572Z,10.00
2022-09-01T05:12:16.701Z,10.50
2022-09-01T05:12:53.993Z,6.75
2022-09-01T05:13:27.446Z,9.32
2022-09-01T05:13:59.677Z,8.18
2022-09-01T05:14:34.437Z,8.18
2022-09-01T05:15:09.604Z,7.88
2022-09-01T05:15:46.772Z,9.55
2022-09-01T05:16:25.468Z,8.20
2022-09-01T05:17:01.999Z,9.48
2022-09-01T05:17:34.303Z,11.95
2022-09-01T05:18:10.218Z,9.05
2022-09-01T05:18:47.902Z,9.20
2022-09-01T05:19:21.714Z,6.82
2022-09-01T05:19:57.092Z,8.05
2022-09-01T05:20:32.633Z,11.93
2022-09-01T05:21:10.008Z,9.23
2022-09-01T05:21:45.880Z,7.85
2022-09-01T05:22:23.236Z,6.53
2022-09-01T05:23:05.224Z,8.68
2022-09-01T05:23:38.445Z,8.48
2022-09-01T05:24:14.953Z,8.73
2022-09-01T05:24:47.230Z,7.55
2022-09-01T05:25:19.473Z,9.75
2022-09-01T05:25:55.406Z,9.50
2022-09-01T05:26:31.814Z,8.43
2022-09-01T05:27:05.114Z,8.75
2022-09-01T05:27:49.739Z,11.40
2022-09-01T05:28:25.461Z,8.30
2022-09-01T05:29:02.948Z,9.43
2022-09-01T05:29:38.101Z,7.75
2022-09-01T05:30:12.926Z,10.05
2022-09-01T05:30:49.913Z,8.60
2022-09-01T05:31:23.544Z,7.95
2022-09-01T05:31:57.159Z,7.43
2022-09-01T05:32:33.732Z,7.07
2022-09-01T05:33:11.784Z,7.38
2022-09-01T05:33:46.116Z,8.82
2022-09-01T05:34:27.105Z,6.35
2022-09-01T05:35:00.009Z,7.20
2022-09-01T05:35:32.581Z,7.50
2022-09-01T05:36:08.502Z,7.30
2022-09-01T05:36:46.354Z,6.90
2022-09-01T05:37:21.874Z,7.38
2022-09-01T05:37:59.064Z,7.50
2022-09-01T05:38:31.528Z,10.45
2022-09-01T05:39:05.889Z,8.13
2022-09-01T05:39:41.152Z,8.50
2022-09-01T05:40:16.532Z,8.85
2022-09-01T05:41:02.177Z,8.20
2022-09-01T05:41:35.903Z,11.88
2022-09-01T05:42:10.950Z,10.57
2022-09-01T05:42:44.866Z,9.32
2022-09-01T05:43:17.870Z,9.27
2022-09-01T05:43:59.421Z,7.75
2022-09-01T05:44:32.582Z,6.07
2022-09-01T05:45:08.520Z,7.95
2022-09-01T05:46:05.162Z,8.25
2022-09-01T05:46:40.458Z,12.30
2022-09-01T05:47:20.464Z,7.22
2022-09-01T05:47:55.175Z,9.23
2022-09-01T05:48:31.726Z,7.72
2022-09-01T05:49:06.652Z,7.78
2022-09-01T05:49:40.824Z,8.52
2022-09-01T05:50:16.750Z,8.80
2022-09-01T05:50:49.673Z,9.82
2022-09-01T05:51:43.191Z,9.52
2022-09-01T05:52:26.366Z,13.20
2022-09-01T05:53:02.877Z,9.43
2022-09-01T05:53:36.245Z,9.18
2022-09-01T05:54:12.491Z,9.85
2022-09-01T05:54:47.346Z,10.75
2022-09-01T05:55:23.058Z,11.73
2022-09-01T05:55:59.441Z,9.10
2022-09-01T05:56:32.761Z,11.30
2022-09-01T05:57:30.264Z,8.32
2022-09-01T05:58:03.509Z,8.10
2022-09-01T05:59:34.262Z,7.82
2022-09-01T06:00:12.565Z,8.10
2022-09-01T06:00:49.281Z,8.75
2022-09-01T06:01:26.479Z,8.10
2022-09-01T06:01:59.535Z,8.10
2022-09-01T06:02:34.265Z,8.18
2022-09-01T06:03:09.526Z,6.90
2022-09-01T06:03:44.806Z,8.07
2022-09-01T06:04:24.864Z,8.18
2022-09-01T06:05:00.008Z,7.47
2022-09-01T06:05:40.048Z,7.47
2022-09-01T06:06:16.768Z,7.43
2022-09-01T06:07:06.898Z,8.27
2022-09-01T06:07:44.407Z,8.98
2022-09-01T06:08:23.182Z,8.85
2022-09-01T06:08:59.047Z,9.65
2022-09-01T06:09:32.178Z,8.43
2022-09-01T06:10:08.143Z,8.13
2022-09-01T06:10:42.114Z,7.72
2022-09-01T06:11:15.186Z,8.93
2022-09-01T06:11:50.884Z,8.98
2022-09-01T06:12:24.036Z,8.65
2022-09-01T06:13:01.962Z,11.32
2022-09-01T06:13:34.664Z,8.98
2022-09-01T06:14:08.822Z,8.13
2022-09-01T06:14:43.664Z,8.20
2022-09-01T06:15:18.640Z,7.13
2022-09-01T06:15:56.734Z,6.50
2022-09-01T06:16:33.039Z,7.55
2022-09-01T06:17:06.798Z,7.00
2022-09-01T06:17:39.399Z,10.02
2022-09-01T06:18:15.367Z,8.25
2022-09-01T06:18:58.098Z,8.05
2022-09-01T06:19:37.237Z,7.22
2022-09-01T06:20:10.917Z,6.72
2022-09-01T06:20:50.852Z,6.82
2022-09-01T06:21:24.830Z,8.85
2022-09-01T06:21:57.124Z,7.70
2022-09-01T06:22:32.632Z,7.85
2022-09-01T06:23:04.844Z,7.53
2022-09-01T06:23:39.835Z,7.05
2022-09-01T06:24:15.074Z,7.85
2022-09-01T06:24:54.559Z,7.07
2022-09-01T06:25:30.743Z,8.30
2022-09-01T06:26:04.290Z,7.32
2022-09-01T06:26:39.030Z,9.45
2022-09-01T06:27:18.140Z,6.10
2022-09-01T06:27:52.550Z,7.53
2022-09-01T06:28:25.476Z,7.28
2022-09-01T06:29:03.428Z,7.03
2022-09-01T06:29:36.149Z,7.85
2022-09-01T06:30:15.311Z,7.18
2022-09-01T06:30:57.463Z,7.40
2022-09-01T06:31:34.329Z,6.93
2022-09-01T06:32:12.677Z,7.05
2022-09-01T06:32:49.837Z,10.15
2022-09-01T06:33:23.150Z,7.55
2022-09-01T06:34:00.451Z,7.40
2022-09-01T06:34:33.890Z,8.68
2022-09-01T06:35:09.405Z,8.82
2022-09-01T06:35:47.754Z,7.40
2022-09-01T06:36:23.859Z,6.50
2022-09-01T06:36:56.336Z,8.15
2022-09-01T06:37:32.826Z,7.10
2022-09-01T06:38:08.559Z,9.23
2022-09-01T06:38:57.950Z,7.05
2022-09-01T06:39:31.853Z,6.90
2022-09-01T06:40:05.979Z,7.80
2022-09-01T06:40:42.812Z,7.25
2022-09-01T06:41:19.401Z,6.63
2022-09-01T06:41:53.349Z,7.18
2022-09-01T06:42:35.374Z,6.35
2022-09-01T06:43:09.373Z,7.68
2022-09-01T06:43:44.749Z,8.25
2022-09-01T06:44:22.411Z,7.53
2022-09-01T06:45:02.983Z,7.10
2022-09-01T06:45:43.576Z,7.75
2022-09-01T06:46:16.824Z,8.43
2022-09-01T06:46:52.074Z,7.55
2022-09-01T06:47:24.504Z,6.15
2022-09-01T06:48:00.174Z,9.60
2022-09-01T06:48:36.008Z,7.13
2022-09-01T06:49:12.381Z,6.43
2022-09-01T06:49:44.951Z,7.03
2022-09-01T06:51:22.332Z,8.02
2022-09-01T06:52:00.291Z,7.68
2022-09-01T06:53:32.904Z,7.38
2022-09-01T06:54:14.350Z,8.18
2022-09-01T06:54:52.287Z,7.72
2022-09-01T06:55:24.762Z,7.32
2022-09-01T06:55:57.081Z,7.20
2022-09-01T06:56:38.920Z,8.45
2022-09-01T06:58:15.652Z,8.80
2022-09-01T06:58:54.318Z,7.75
2022-09-01T06:59:34.697Z,5.82
2022-09-01T07:00:18.745Z,6.50
2022-09-01T07:00:55.536Z,7.50
2022-09-01T07:01:28.437Z,8.02
2022-09-01T07:02:04.908Z,9.38
2022-09-01T07:03:09.453Z,11.15
2022-09-01T07:03:53.320Z,6.30
2022-09-01T07:04:39.567Z,8.38
2022-09-01T07:05:59.796Z,8.45
2022-09-01T07:06:07.283Z,8.05
2022-09-01T07:07:54.241Z,7.65
2022-09-01T07:08:22.169Z,7.53
2022-09-01T07:09:20.678Z,7.30
2022-09-01T07:10:21.411Z,7.63
2022-09-01T07:12:08.144Z,7.20
2022-09-01T07:12:25.359Z,7.25
2022-09-01T07:13:08.986Z,6.45
2022-09-01T07:14:15.231Z,7.13
2022-09-01T07:16:33.888Z,8.27
2022-09-01T07:17:23.787Z,6.32
2022-09-01T07:18:00.557Z,7.25
2022-09-01T07:18:34.198Z,7.70
2022-09-01T07:19:13.433Z,6.55
2022-09-01T07:19:53.912Z,8.20
2022-09-01T07:20:37.654Z,6.63
2022-09-01T07:23:20.580Z,6.25
2022-09-01T07:24:13.482Z,6.78
2022-09-01T07:25:12.344Z,9.02
2022-09-01T07:26:53.146Z,7.45
2022-09-01T07:27:35.615Z,6.68
2022-09-01T07:28:15.685Z,8.48
2022-09-01T07:28:51.007Z,6.93
2022-09-01T07:29:25.868Z,6.15
2022-09-01T07:29:59.582Z,6.80
2022-09-01T07:30:33.553Z,9.68
2022-09-01T07:33:41.633Z,6.82
2022-09-01T07:33:55.671Z,7.75
2022-09-01T07:34:50.120Z,7.78
2022-09-01T07:35:23.009Z,8.35
2022-09-01T07:38:49.762Z,8.88
2022-09-01T07:39:48.473Z,7.32
2022-09-01T07:42:56.294Z,6.35
2022-09-01T07:42:58.904Z,8.18
2022-09-01T07:43:11.649Z,8.65
2022-09-01T07:44:13.867Z,9.23
2022-09-01T07:44:52.249Z,9.10
2022-09-01T07:45:47.815Z,7.45
2022-09-01T07:46:41.284Z,9.07
2022-09-01T07:47:20.329Z,8.05
2022-09-01T07:48:35.937Z,9.40
2022-09-01T07:51:52.148Z,9.60
2022-09-01T07:52:25.870Z,9.93
2022-09-01T07:53:02.960Z,10.90
2022-09-01T07:53:39.114Z,8.57
2022-09-01T07:54:15.449Z,10.63
2022-09-01T07:54:50.411Z,9.10
2022-09-01T07:55:22.690Z,10.98
2022-09-01T07:56:02.719Z,11.55
2022-09-01T07:56:39.924Z,11.05
2022-09-01T07:57:15.166Z,9.40
2022-09-01T07:57:51.370Z,7.93
2022-09-01T07:58:26.406Z,8.68
2022-09-01T07:59:08.288Z,6.90
2022-09-01T07:59:43.849Z,9.95
2022-09-01T08:00:22.321Z,8.07
2022-09-01T08:01:02.996Z,10.50
2022-09-01T08:01:35.414Z,10.95
2022-09-01T08:02:07.867Z,10.18
2022-09-01T08:02:44.420Z,9.95
2022-09-01T08:03:21.697Z,9.95
2022-09-01T08:03:58.642Z,11.18
2022-09-01T08:04:31.811Z,10.88
2022-09-01T08:05:09.564Z,10.18
2022-09-01T08:05:45.899Z,13.30
2022-09-01T08:06:20.822Z,11.13
2022-09-01T08:06:57.946Z,11.85
2022-09-01T08:07:30.244Z,12.27
2022-09-01T08:08:02.892Z,14.40
2022-09-01T08:08:42.517Z,12.30
2022-09-01T08:09:25.336Z,12.85
2022-09-01T08:10:10.125Z,11.85
2022-09-01T08:10:49.006Z,12.60
2022-09-01T08:11:58.327Z,11.13
2022-09-01T08:12:30.856Z,12.80
2022-09-01T08:13:03.059Z,13.65
2022-09-01T08:13:41.712Z,15.10
2022-09-01T08:14:18.124Z,14.43
2022-09-01T08:16:52.255Z,13.95
2022-09-01T08:17:51.119Z,15.38
2022-09-01T08:18:20.386Z,17.63
2022-09-01T08:18:56.375Z,16.05
2022-09-01T08:19:32.715Z,16.02
2022-09-01T08:20:20.540Z,17.00
2022-09-01T08:21:07.478Z,18.92
2022-09-01T08:21:47.890Z,20.08
2022-09-01T08:22:43.430Z,19.95
2022-09-01T08:23:27.479Z,20.17
2022-09-01T08:24:00.030Z,22.58
2022-09-01T08:24:35.528Z,22.40
2022-09-01T08:25:09.704Z,20.05
2022-09-01T08:25:45.866Z,21.95
2022-09-01T08:26:20.639Z,22.75
2022-09-01T08:26:58.486Z,24.27
2022-09-01T08:27:32.402Z,21.33
2022-09-01T08:28:05.627Z,19.15
2022-09-01T08:28:46.003Z,20.90
2022-09-01T08:29:18.864Z,20.25
2022-09-01T08:29:51.566Z,22.23